sensor_id;sensor_type;location;lat;lon;timestamp;temperature;humidity
5392;DHT22;2719;53.624;9.786;2023-02-01T00:00:25;6.00;99.90
5392;DHT22;2719;53.624;9.786;2023-02-01T00:02:52;6.00;99.90
5392;DHT22;2719;53.624;9.786;2023-02-01T00:05:18;6.00;99.90
5392;DHT22;2719;53.624;9.786;2023-02-01T00:07:47;6.00;99.90
5392;DHT22;2719;53.624;9.786;2023-02-01T00:10:14;6.10;99.90
5392;DHT22;2719;53.624;9.786;2023-02-01T00:12:42;6.00;99.90
5392;DHT22;2719;53.624;9.786;2023-02-01T00:15:09;6.00;99.90
5392;DHT22;2719;53.624;9.786;2023-02-01T00:17:36;6.00;99.90
5392;DHT22;2719;53.624;9.786;2023-02-01T00:20:04;6.00;99.90
5392;DHT22;2719;53.624;9.786;2023-02-01T00:22:30;6.00;99.90
5392;DHT22;2719;53.624;9.786;2023-02-01T00:24:57;6.00;99.90
5392;DHT22;2719;53.624;9.786;2023-02-01T00:27:24;6.00;99.90
5392;DHT22;2719;53.624;9.786;2023-02-01T00:29:54;6.00;99.90
5392;DHT22;2719;53.624;9.786;2023-02-01T00:32:21;6.00;99.90
5392;DHT22;2719;53.624;9.786;2023-02-01T00:34:47;6.10;99.90
5392;DHT22;2719;53.624;9.786;2023-02-01T00:37:14;6.10;99.90
5392;DHT22;2719;53.624;9.786;2023-02-01T00:39:40;6.20;99.90
5392;DHT22;2719;53.624;9.786;2023-02-01T00:42:07;6.20;99.90
5392;DHT22;2719;53.624;9.786;2023-02-01T00:44:34;6.10;99.90
5392;DHT22;2719;53.624;9.786;2023-02-01T00:47:02;6.20;99.90
5392;DHT22;2719;53.624;9.786;2023-02-01T00:49:29;6.20;99.90
5392;DHT22;2719;53.624;9.786;2023-02-01T00:51:56;6.20;99.90
5392;DHT22;2719;53.624;9.786;2023-02-01T00:54:22;6.10;99.90
5392;DHT22;2719;53.624;9.786;2023-02-01T00:56:49;6.20;99.90
5392;DHT22;2719;53.624;9.786;2023-02-01T00:59:15;6.20;99.90
5392;DHT22;2719;53.624;9.786;2023-02-01T01:01:42;6.10;99.90
5392;DHT22;2719;53.624;9.786;2023-02-01T01:04:10;6.20;99.90
5392;DHT22;2719;53.624;9.786;2023-02-01T01:06:37;6.20;99.90
5392;DHT22;2719;53.624;9.786;2023-02-01T01:09:05;6.20;99.90
5392;DHT22;2719;53.624;9.786;2023-02-01T01:11:36;6.20;99.90
5392;DHT22;2719;53.624;9.786;2023-02-01T01:14:04;6.20;99.90
5392;DHT22;2719;53.624;9.786;2023-02-01T01:16:32;6.20;99.90
5392;DHT22;2719;53.624;9.786;2023-02-01T01:18:59;6.10;99.90
5392;DHT22;2719;53.624;9.786;2023-02-01T01:21:28;6.20;99.90
5392;DHT22;2719;53.624;9.786;2023-02-01T01:23:55;6.20;99.90
5392;DHT22;2719;53.624;9.786;2023-02-01T01:26:23;6.20;99.90
5392;DHT22;2719;53.624;9.786;2023-02-01T01:28:50;6.20;99.90
5392;DHT22;2719;53.624;9.786;2023-02-01T01:31:19;6.20;99.90
5392;DHT22;2719;53.624;9.786;2023-02-01T01:33:48;6.10;99.90
5392;DHT22;2719;53.624;9.786;2023-02-01T01:36:14;6.10;99.90
5392;DHT22;2719;53.624;9.786;2023-02-01T01:38:42;6.10;99.90
5392;DHT22;2719;53.624;9.786;2023-02-01T01:41:14;6.20;99.90
5392;DHT22;2719;53.624;9.786;2023-02-01T01:44:02;6.20;99.90
5392;DHT22;2719;53.624;9.786;2023-02-01T01:46:31;6.20;99.90
5392;DHT22;2719;53.624;9.786;2023-02-01T01:49:03;6.10;99.90
5392;DHT22;2719;53.624;9.786;2023-02-01T01:51:35;6.20;99.90
5392;DHT22;2719;53.624;9.786;2023-02-01T01:54:07;6.10;99.90
5392;DHT22;2719;53.624;9.786;2023-02-01T01:56:37;6.20;99.90
5392;DHT22;2719;53.624;9.786;2023-02-01T01:59:04;6.20;99.90
5392;DHT22;2719;53.624;9.786;2023-02-01T02:01:32;6.20;99.90
5392;DHT22;2719;53.624;9.786;2023-02-01T02:03:58;6.20;99.90
5392;DHT22;2719;53.624;9.786;2023-02-01T02:06:33;6.20;99.90
5392;DHT22;2719;53.624;9.786;2023-02-01T02:09:03;6.20;99.90
5392;DHT22;2719;53.624;9.786;2023-02-01T02:11:30;6.20;99.90
5392;DHT22;2719;53.624;9.786;2023-02-01T02:13:57;6.20;99.90
5392;DHT22;2719;53.624;9.786;2023-02-01T02:22:57;6.20;99.90
5392;DHT22;2719;53.624;9.786;2023-02-01T02:25:59;6.20;99.90
5392;DHT22;2719;53.624;9.786;2023-02-01T02:28:57;6.20;99.90
5392;DHT22;2719;53.624;9.786;2023-02-01T02:31:47;6.20;99.90
5392;DHT22;2719;53.624;9.786;2023-02-01T02:34:26;6.20;99.90
5392;DHT22;2719;53.624;9.786;2023-02-01T02:37:01;6.30;99.90
5392;DHT22;2719;53.624;9.786;2023-02-01T02:39:38;6.20;99.90
5392;DHT22;2719;53.624;9.786;2023-02-01T02:42:12;6.20;99.90
5392;DHT22;2719;53.624;9.786;2023-02-01T02:45:02;6.20;99.90
5392;DHT22;2719;53.624;9.786;2023-02-01T02:47:56;6.10;99.90
5392;DHT22;2719;53.624;9.786;2023-02-01T02:50:29;6.10;99.90
5392;DHT22;2719;53.624;9.786;2023-02-01T02:53:18;6.10;99.90
5392;DHT22;2719;53.624;9.786;2023-02-01T02:56:15;6.20;99.90
5392;DHT22;2719;53.624;9.786;2023-02-01T02:59:02;6.10;99.90
5392;DHT22;2719;53.624;9.786;2023-02-01T03:01:48;5.90;99.90
5392;DHT22;2719;53.624;9.786;2023-02-01T03:04:32;5.90;99.90
5392;DHT22;2719;53.624;9.786;2023-02-01T03:07:12;5.90;99.90
5392;DHT22;2719;53.624;9.786;2023-02-01T03:09:40;5.80;99.90
5392;DHT22;2719;53.624;9.786;2023-02-01T03:12:12;5.80;99.90
5392;DHT22;2719;53.624;9.786;2023-02-01T03:15:05;5.80;99.90
5392;DHT22;2719;53.624;9.786;2023-02-01T03:17:35;5.80;99.90
5392;DHT22;2719;53.624;9.786;2023-02-01T03:20:07;5.80;99.90
5392;DHT22;2719;53.624;9.786;2023-02-01T03:22:39;5.80;99.90
5392;DHT22;2719;53.624;9.786;2023-02-01T03:25:10;5.70;99.90
5392;DHT22;2719;53.624;9.786;2023-02-01T03:27:42;5.60;99.90
5392;DHT22;2719;53.624;9.786;2023-02-01T03:30:17;5.60;99.90
5392;DHT22;2719;53.624;9.786;2023-02-01T03:32:46;5.60;99.90
5392;DHT22;2719;53.624;9.786;2023-02-01T03:35:28;5.60;99.90
5392;DHT22;2719;53.624;9.786;2023-02-01T03:38:02;5.60;99.90
5392;DHT22;2719;53.624;9.786;2023-02-01T03:40:32;5.60;99.90
5392;DHT22;2719;53.624;9.786;2023-02-01T03:43:01;5.60;99.90
5392;DHT22;2719;53.624;9.786;2023-02-01T03:45:34;5.60;99.90
5392;DHT22;2719;53.624;9.786;2023-02-01T03:48:05;5.70;99.90
5392;DHT22;2719;53.624;9.786;2023-02-01T03:50:33;5.60;99.90
5392;DHT22;2719;53.624;9.786;2023-02-01T03:53:06;5.60;99.90
5392;DHT22;2719;53.624;9.786;2023-02-01T03:55:34;5.60;99.90
5392;DHT22;2719;53.624;9.786;2023-02-01T03:58:07;5.70;99.90
5392;DHT22;2719;53.624;9.786;2023-02-01T04:00:35;5.70;99.90
5392;DHT22;2719;53.624;9.786;2023-02-01T04:03:03;5.70;99.90
5392;DHT22;2719;53.624;9.786;2023-02-01T04:05:30;5.70;99.90
5392;DHT22;2719;53.624;9.786;2023-02-01T04:07:57;5.70;99.90
5392;DHT22;2719;53.624;9.786;2023-02-01T04:10:26;5.60;99.90
5392;DHT22;2719;53.624;9.786;2023-02-01T04:12:52;5.70;99.90
5392;DHT22;2719;53.624;9.786;2023-02-01T04:15:19;5.70;99.90
5392;DHT22;2719;53.624;9.786;2023-02-01T04:17:46;5.70;99.90
5392;DHT22;2719;53.624;9.786;2023-02-01T04:20:13;5.70;99.90
5392;DHT22;2719;53.624;9.786;2023-02-01T04:22:39;5.70;99.90
5392;DHT22;2719;53.624;9.786;2023-02-01T04:25:07;5.60;99.90
5392;DHT22;2719;53.624;9.786;2023-02-01T04:27:35;5.60;99.90
5392;DHT22;2719;53.624;9.786;2023-02-01T04:30:02;5.60;99.90
5392;DHT22;2719;53.624;9.786;2023-02-01T04:32:29;5.60;99.90
5392;DHT22;2719;53.624;9.786;2023-02-01T04:34:56;5.50;99.90
5392;DHT22;2719;53.624;9.786;2023-02-01T04:37:22;5.50;99.90
5392;DHT22;2719;53.624;9.786;2023-02-01T04:39:49;5.40;99.90
5392;DHT22;2719;53.624;9.786;2023-02-01T04:42:16;5.40;99.90
5392;DHT22;2719;53.624;9.786;2023-02-01T04:44:44;5.40;99.90
5392;DHT22;2719;53.624;9.786;2023-02-01T04:47:11;5.40;99.90
5392;DHT22;2719;53.624;9.786;2023-02-01T04:49:38;5.30;99.90
5392;DHT22;2719;53.624;9.786;2023-02-01T04:52:04;5.30;99.90
5392;DHT22;2719;53.624;9.786;2023-02-01T04:54:31;5.20;99.90
5392;DHT22;2719;53.624;9.786;2023-02-01T04:56:58;5.10;99.90
5392;DHT22;2719;53.624;9.786;2023-02-01T04:59:24;5.10;99.90
5392;DHT22;2719;53.624;9.786;2023-02-01T05:01:52;5.10;99.90
5392;DHT22;2719;53.624;9.786;2023-02-01T05:04:19;4.90;99.90
5392;DHT22;2719;53.624;9.786;2023-02-01T05:06:46;4.80;99.90
5392;DHT22;2719;53.624;9.786;2023-02-01T05:09:12;4.90;99.90
5392;DHT22;2719;53.624;9.786;2023-02-01T05:11:39;4.70;99.90
5392;DHT22;2719;53.624;9.786;2023-02-01T05:14:24;4.70;99.90
5392;DHT22;2719;53.624;9.786;2023-02-01T05:16:50;4.60;99.90
5392;DHT22;2719;53.624;9.786;2023-02-01T05:19:18;4.50;99.90
5392;DHT22;2719;53.624;9.786;2023-02-01T05:21:45;4.40;99.90
5392;DHT22;2719;53.624;9.786;2023-02-01T05:24:12;4.50;99.90
5392;DHT22;2719;53.624;9.786;2023-02-01T05:26:42;4.50;99.90
5392;DHT22;2719;53.624;9.786;2023-02-01T05:29:10;4.40;99.90
5392;DHT22;2719;53.624;9.786;2023-02-01T05:31:37;4.40;99.90
5392;DHT22;2719;53.624;9.786;2023-02-01T05:34:04;4.40;99.90
5392;DHT22;2719;53.624;9.786;2023-02-01T05:36:32;4.40;99.90
5392;DHT22;2719;53.624;9.786;2023-02-01T05:38:59;4.30;99.90
5392;DHT22;2719;53.624;9.786;2023-02-01T05:41:26;4.40;99.90
5392;DHT22;2719;53.624;9.786;2023-02-01T05:43:52;4.50;99.90
5392;DHT22;2719;53.624;9.786;2023-02-01T05:46:19;4.40;99.90
5392;DHT22;2719;53.624;9.786;2023-02-01T05:48:46;4.40;99.90
5392;DHT22;2719;53.624;9.786;2023-02-01T05:51:13;4.20;99.90
5392;DHT22;2719;53.624;9.786;2023-02-01T05:53:41;4.00;99.90
5392;DHT22;2719;53.624;9.786;2023-02-01T05:56:07;4.10;99.90
5392;DHT22;2719;53.624;9.786;2023-02-01T05:58:34;4.10;99.90
5392;DHT22;2719;53.624;9.786;2023-02-01T06:01:01;4.10;99.90
5392;DHT22;2719;53.624;9.786;2023-02-01T06:03:28;4.10;99.90
5392;DHT22;2719;53.624;9.786;2023-02-01T06:05:55;4.20;99.90
5392;DHT22;2719;53.624;9.786;2023-02-01T06:08:22;4.10;99.90
5392;DHT22;2719;53.624;9.786;2023-02-01T06:10:56;4.10;99.90
5392;DHT22;2719;53.624;9.786;2023-02-01T06:13:23;4.20;99.90
5392;DHT22;2719;53.624;9.786;2023-02-01T06:15:50;4.30;99.90
5392;DHT22;2719;53.624;9.786;2023-02-01T06:18:16;4.20;99.90
5392;DHT22;2719;53.624;9.786;2023-02-01T06:20:43;4.30;99.90
5392;DHT22;2719;53.624;9.786;2023-02-01T06:23:10;4.30;99.90
5392;DHT22;2719;53.624;9.786;2023-02-01T06:25:37;4.30;99.90
5392;DHT22;2719;53.624;9.786;2023-02-01T06:28:05;4.40;99.90
5392;DHT22;2719;53.624;9.786;2023-02-01T06:30:32;4.40;99.90
5392;DHT22;2719;53.624;9.786;2023-02-01T06:32:58;4.40;99.90
5392;DHT22;2719;53.624;9.786;2023-02-01T06:35:25;4.50;99.90
5392;DHT22;2719;53.624;9.786;2023-02-01T06:37:51;4.50;99.90
5392;DHT22;2719;53.624;9.786;2023-02-01T06:40:18;4.50;99.90
5392;DHT22;2719;53.624;9.786;2023-02-01T06:42:45;4.60;99.90
5392;DHT22;2719;53.624;9.786;2023-02-01T06:45:13;4.60;99.90
5392;DHT22;2719;53.624;9.786;2023-02-01T06:47:40;4.60;99.90
5392;DHT22;2719;53.624;9.786;2023-02-01T06:50:08;4.70;99.90
5392;DHT22;2719;53.624;9.786;2023-02-01T06:52:35;4.70;99.90
5392;DHT22;2719;53.624;9.786;2023-02-01T06:55:02;4.70;99.90
5392;DHT22;2719;53.624;9.786;2023-02-01T06:57:28;4.70;99.90
5392;DHT22;2719;53.624;9.786;2023-02-01T06:59:56;4.70;99.90
5392;DHT22;2719;53.624;9.786;2023-02-01T07:02:25;4.70;99.90
5392;DHT22;2719;53.624;9.786;2023-02-01T07:04:52;4.80;99.90
5392;DHT22;2719;53.624;9.786;2023-02-01T07:07:18;4.90;99.90
5392;DHT22;2719;53.624;9.786;2023-02-01T07:09:47;4.80;99.90
5392;DHT22;2719;53.624;9.786;2023-02-01T07:12:14;4.80;99.90
5392;DHT22;2719;53.624;9.786;2023-02-01T07:14:41;4.90;99.90
5392;DHT22;2719;53.624;9.786;2023-02-01T07:17:08;4.90;99.90
5392;DHT22;2719;53.624;9.786;2023-02-01T07:19:36;5.00;99.90
5392;DHT22;2719;53.624;9.786;2023-02-01T07:22:02;5.00;99.90
5392;DHT22;2719;53.624;9.786;2023-02-01T07:24:29;5.10;99.90
5392;DHT22;2719;53.624;9.786;2023-02-01T07:26:56;5.20;99.90
5392;DHT22;2719;53.624;9.786;2023-02-01T07:29:23;5.30;99.90
5392;DHT22;2719;53.624;9.786;2023-02-01T07:31:50;5.30;99.90
5392;DHT22;2719;53.624;9.786;2023-02-01T07:34:16;5.40;99.90
5392;DHT22;2719;53.624;9.786;2023-02-01T07:36:44;5.40;99.90
5392;DHT22;2719;53.624;9.786;2023-02-01T07:39:11;5.40;99.90
5392;DHT22;2719;53.624;9.786;2023-02-01T07:41:37;5.40;99.90
5392;DHT22;2719;53.624;9.786;2023-02-01T07:44:04;5.50;99.90
5392;DHT22;2719;53.624;9.786;2023-02-01T07:46:31;5.50;99.90
5392;DHT22;2719;53.624;9.786;2023-02-01T07:48:58;5.40;99.90
5392;DHT22;2719;53.624;9.786;2023-02-01T07:51:24;5.50;99.90
5392;DHT22;2719;53.624;9.786;2023-02-01T07:53:52;5.60;99.90
5392;DHT22;2719;53.624;9.786;2023-02-01T07:56:21;5.60;99.90
5392;DHT22;2719;53.624;9.786;2023-02-01T07:58:48;5.50;99.90
5392;DHT22;2719;53.624;9.786;2023-02-01T08:01:16;5.60;99.90
5392;DHT22;2719;53.624;9.786;2023-02-01T08:03:51;5.60;99.90
5392;DHT22;2719;53.624;9.786;2023-02-01T08:06:18;5.60;99.90
5392;DHT22;2719;53.624;9.786;2023-02-01T08:08:46;5.60;99.90
5392;DHT22;2719;53.624;9.786;2023-02-01T08:11:14;5.70;99.90
5392;DHT22;2719;53.624;9.786;2023-02-01T08:13:41;5.70;99.90
5392;DHT22;2719;53.624;9.786;2023-02-01T08:16:10;5.70;99.90
5392;DHT22;2719;53.624;9.786;2023-02-01T08:18:38;5.60;99.90
5392;DHT22;2719;53.624;9.786;2023-02-01T08:21:06;5.70;99.90
5392;DHT22;2719;53.624;9.786;2023-02-01T08:23:33;5.70;99.90
5392;DHT22;2719;53.624;9.786;2023-02-01T08:26:07;5.70;99.90
5392;DHT22;2719;53.624;9.786;2023-02-01T08:28:36;5.80;99.90
5392;DHT22;2719;53.624;9.786;2023-02-01T08:31:06;5.70;99.90
5392;DHT22;2719;53.624;9.786;2023-02-01T08:33:33;5.60;99.90
5392;DHT22;2719;53.624;9.786;2023-02-01T08:36:02;5.60;99.90
5392;DHT22;2719;53.624;9.786;2023-02-01T08:38:29;5.60;99.90
5392;DHT22;2719;53.624;9.786;2023-02-01T08:40:55;5.50;99.90
5392;DHT22;2719;53.624;9.786;2023-02-01T08:43:22;5.50;99.90
5392;DHT22;2719;53.624;9.786;2023-02-01T08:45:54;5.50;99.90
5392;DHT22;2719;53.624;9.786;2023-02-01T08:48:20;5.50;99.90
5392;DHT22;2719;53.624;9.786;2023-02-01T08:50:47;5.50;99.90
5392;DHT22;2719;53.624;9.786;2023-02-01T08:53:13;5.50;99.90
5392;DHT22;2719;53.624;9.786;2023-02-01T08:55:40;5.60;99.90
5392;DHT22;2719;53.624;9.786;2023-02-01T08:58:07;5.60;99.90
5392;DHT22;2719;53.624;9.786;2023-02-01T09:00:34;5.70;99.90
5392;DHT22;2719;53.624;9.786;2023-02-01T09:03:02;5.70;99.90
5392;DHT22;2719;53.624;9.786;2023-02-01T09:05:29;5.70;99.90
5392;DHT22;2719;53.624;9.786;2023-02-01T09:07:55;5.70;99.90
5392;DHT22;2719;53.624;9.786;2023-02-01T09:10:22;5.70;99.90
5392;DHT22;2719;53.624;9.786;2023-02-01T09:12:48;5.80;99.90
5392;DHT22;2719;53.624;9.786;2023-02-01T09:15:15;5.90;99.90
5392;DHT22;2719;53.624;9.786;2023-02-01T09:17:42;5.90;99.90
5392;DHT22;2719;53.624;9.786;2023-02-01T09:20:11;5.90;99.90
5392;DHT22;2719;53.624;9.786;2023-02-01T09:22:38;6.00;99.90
5392;DHT22;2719;53.624;9.786;2023-02-01T09:25:07;6.00;99.90
5392;DHT22;2719;53.624;9.786;2023-02-01T09:27:34;6.00;99.90
5392;DHT22;2719;53.624;9.786;2023-02-01T09:30:00;6.10;99.90
5392;DHT22;2719;53.624;9.786;2023-02-01T09:32:27;6.00;99.90
5392;DHT22;2719;53.624;9.786;2023-02-01T09:34:54;6.10;99.90
5392;DHT22;2719;53.624;9.786;2023-02-01T09:37:22;6.10;99.90
5392;DHT22;2719;53.624;9.786;2023-02-01T09:39:48;6.10;99.90
5392;DHT22;2719;53.624;9.786;2023-02-01T09:42:21;6.10;99.90
5392;DHT22;2719;53.624;9.786;2023-02-01T09:45:07;6.10;99.90
5392;DHT22;2719;53.624;9.786;2023-02-01T09:47:42;6.10;99.90
5392;DHT22;2719;53.624;9.786;2023-02-01T09:50:14;6.20;99.90
5392;DHT22;2719;53.624;9.786;2023-02-01T09:52:47;6.20;99.90
5392;DHT22;2719;53.624;9.786;2023-02-01T09:55:20;6.30;99.90
5392;DHT22;2719;53.624;9.786;2023-02-01T09:57:51;6.40;99.90
5392;DHT22;2719;53.624;9.786;2023-02-01T10:00:23;6.40;99.90
5392;DHT22;2719;53.624;9.786;2023-02-01T10:02:51;6.40;99.90
5392;DHT22;2719;53.624;9.786;2023-02-01T10:05:30;6.40;99.90
5392;DHT22;2719;53.624;9.786;2023-02-01T10:08:11;6.40;99.90
5392;DHT22;2719;53.624;9.786;2023-02-01T10:10:43;6.40;99.90
5392;DHT22;2719;53.624;9.786;2023-02-01T10:13:36;6.40;99.90
5392;DHT22;2719;53.624;9.786;2023-02-01T10:16:14;6.40;99.90
5392;DHT22;2719;53.624;9.786;2023-02-01T10:18:51;6.50;99.90
5392;DHT22;2719;53.624;9.786;2023-02-01T10:21:32;6.50;99.90
5392;DHT22;2719;53.624;9.786;2023-02-01T10:24:20;6.50;99.90
5392;DHT22;2719;53.624;9.786;2023-02-01T10:26:52;6.40;99.90
5392;DHT22;2719;53.624;9.786;2023-02-01T10:29:22;6.40;99.90
5392;DHT22;2719;53.624;9.786;2023-02-01T10:31:52;6.30;99.90
5392;DHT22;2719;53.624;9.786;2023-02-01T10:34:21;6.20;99.90
5392;DHT22;2719;53.624;9.786;2023-02-01T10:36:57;6.10;99.90
5392;DHT22;2719;53.624;9.786;2023-02-01T10:39:27;6.10;99.90
5392;DHT22;2719;53.624;9.786;2023-02-01T10:41:55;6.10;99.90
5392;DHT22;2719;53.624;9.786;2023-02-01T10:44:26;6.10;99.90
5392;DHT22;2719;53.624;9.786;2023-02-01T10:46:54;6.10;99.90
5392;DHT22;2719;53.624;9.786;2023-02-01T10:49:24;6.00;99.90
5392;DHT22;2719;53.624;9.786;2023-02-01T10:51:55;6.00;99.90
5392;DHT22;2719;53.624;9.786;2023-02-01T10:54:34;5.90;99.90
5392;DHT22;2719;53.624;9.786;2023-02-01T10:57:07;5.90;99.90
5392;DHT22;2719;53.624;9.786;2023-02-01T10:59:34;5.90;99.90
5392;DHT22;2719;53.624;9.786;2023-02-01T11:02:05;5.90;99.90
5392;DHT22;2719;53.624;9.786;2023-02-01T11:04:39;5.90;99.90
5392;DHT22;2719;53.624;9.786;2023-02-01T11:07:07;5.90;99.90
5392;DHT22;2719;53.624;9.786;2023-02-01T11:09:41;5.90;99.90
5392;DHT22;2719;53.624;9.786;2023-02-01T11:12:23;6.00;99.90
5392;DHT22;2719;53.624;9.786;2023-02-01T11:14:51;6.00;99.90
5392;DHT22;2719;53.624;9.786;2023-02-01T11:17:26;6.00;99.90
5392;DHT22;2719;53.624;9.786;2023-02-01T11:19:57;6.10;99.90
5392;DHT22;2719;53.624;9.786;2023-02-01T11:22:25;6.10;99.90
5392;DHT22;2719;53.624;9.786;2023-02-01T11:24:55;6.10;99.90
5392;DHT22;2719;53.624;9.786;2023-02-01T11:27:24;6.20;99.90
5392;DHT22;2719;53.624;9.786;2023-02-01T11:29:53;6.20;99.90
5392;DHT22;2719;53.624;9.786;2023-02-01T11:32:22;6.20;99.90
5392;DHT22;2719;53.624;9.786;2023-02-01T11:35:04;6.20;99.90
5392;DHT22;2719;53.624;9.786;2023-02-01T11:37:36;6.20;99.90
5392;DHT22;2719;53.624;9.786;2023-02-01T11:40:26;6.20;99.90
5392;DHT22;2719;53.624;9.786;2023-02-01T11:42:55;6.20;99.90
5392;DHT22;2719;53.624;9.786;2023-02-01T11:45:25;6.20;99.90
5392;DHT22;2719;53.624;9.786;2023-02-01T11:47:53;6.20;99.90
5392;DHT22;2719;53.624;9.786;2023-02-01T11:50:28;6.20;99.90
5392;DHT22;2719;53.624;9.786;2023-02-01T11:56:07;6.10;99.90
5392;DHT22;2719;53.624;9.786;2023-02-01T12:01:49;6.10;99.90
5392;DHT22;2719;53.624;9.786;2023-02-01T12:04:44;6.10;99.90
5392;DHT22;2719;53.624;9.786;2023-02-01T12:07:23;6.10;99.90
5392;DHT22;2719;53.624;9.786;2023-02-01T12:10:05;6.00;99.90
5392;DHT22;2719;53.624;9.786;2023-02-01T12:12:41;6.00;99.90
5392;DHT22;2719;53.624;9.786;2023-02-01T12:15:26;5.90;99.90
5392;DHT22;2719;53.624;9.786;2023-02-01T12:21:03;5.70;99.90
5392;DHT22;2719;53.624;9.786;2023-02-01T12:23:50;5.70;99.90
5392;DHT22;2719;53.624;9.786;2023-02-01T12:26:40;5.60;99.90
5392;DHT22;2719;53.624;9.786;2023-02-01T12:32:22;5.20;99.90
5392;DHT22;2719;53.624;9.786;2023-02-01T12:35:31;5.00;99.90
5392;DHT22;2719;53.624;9.786;2023-02-01T12:38:17;5.00;99.90
5392;DHT22;2719;53.624;9.786;2023-02-01T12:40:57;5.00;99.90
5392;DHT22;2719;53.624;9.786;2023-02-01T12:43:36;5.00;99.90
5392;DHT22;2719;53.624;9.786;2023-02-01T12:46:08;5.00;99.90
5392;DHT22;2719;53.624;9.786;2023-02-01T12:48:38;5.10;99.90
5392;DHT22;2719;53.624;9.786;2023-02-01T12:51:12;5.00;99.90
5392;DHT22;2719;53.624;9.786;2023-02-01T12:53:45;5.00;99.90
5392;DHT22;2719;53.624;9.786;2023-02-01T12:56:16;4.90;99.90
5392;DHT22;2719;53.624;9.786;2023-02-01T12:58:46;4.80;99.90
5392;DHT22;2719;53.624;9.786;2023-02-01T13:01:18;4.80;99.90
5392;DHT22;2719;53.624;9.786;2023-02-01T13:03:56;4.90;99.90
5392;DHT22;2719;53.624;9.786;2023-02-01T13:06:29;4.90;99.90
5392;DHT22;2719;53.624;9.786;2023-02-01T13:09:02;4.80;99.90
5392;DHT22;2719;53.624;9.786;2023-02-01T13:11:34;4.90;99.90
5392;DHT22;2719;53.624;9.786;2023-02-01T13:14:03;5.00;99.90
5392;DHT22;2719;53.624;9.786;2023-02-01T13:16:35;5.10;99.90
5392;DHT22;2719;53.624;9.786;2023-02-01T13:19:09;5.20;99.90
5392;DHT22;2719;53.624;9.786;2023-02-01T13:21:39;5.20;99.90
5392;DHT22;2719;53.624;9.786;2023-02-01T13:24:21;5.40;99.90
5392;DHT22;2719;53.624;9.786;2023-02-01T13:26:49;5.50;99.90
5392;DHT22;2719;53.624;9.786;2023-02-01T13:29:19;5.60;99.90
5392;DHT22;2719;53.624;9.786;2023-02-01T13:32:04;5.70;99.90
5392;DHT22;2719;53.624;9.786;2023-02-01T13:34:47;5.70;99.90
5392;DHT22;2719;53.624;9.786;2023-02-01T13:37:29;5.60;99.90
5392;DHT22;2719;53.624;9.786;2023-02-01T13:40:08;5.60;99.90
5392;DHT22;2719;53.624;9.786;2023-02-01T13:42:45;5.60;99.90
5392;DHT22;2719;53.624;9.786;2023-02-01T13:45:15;5.50;99.90
5392;DHT22;2719;53.624;9.786;2023-02-01T13:47:45;5.50;99.90
5392;DHT22;2719;53.624;9.786;2023-02-01T13:50:21;5.50;99.90
5392;DHT22;2719;53.624;9.786;2023-02-01T13:52:53;5.50;99.90
5392;DHT22;2719;53.624;9.786;2023-02-01T13:55:26;5.60;99.90
5392;DHT22;2719;53.624;9.786;2023-02-01T13:58:02;5.50;99.90
5392;DHT22;2719;53.624;9.786;2023-02-01T14:00:30;5.60;99.90
5392;DHT22;2719;53.624;9.786;2023-02-01T14:03:13;5.70;99.90
5392;DHT22;2719;53.624;9.786;2023-02-01T14:06:01;5.80;99.90
5392;DHT22;2719;53.624;9.786;2023-02-01T14:08:41;5.90;99.90
5392;DHT22;2719;53.624;9.786;2023-02-01T14:11:35;6.00;99.90
5392;DHT22;2719;53.624;9.786;2023-02-01T14:17:31;6.10;99.90
5392;DHT22;2719;53.624;9.786;2023-02-01T14:23:15;6.00;99.90
5392;DHT22;2719;53.624;9.786;2023-02-01T14:25:43;5.90;99.90
5392;DHT22;2719;53.624;9.786;2023-02-01T14:28:12;5.70;99.90
5392;DHT22;2719;53.624;9.786;2023-02-01T14:30:42;5.60;99.90
5392;DHT22;2719;53.624;9.786;2023-02-01T14:33:20;5.60;99.90
5392;DHT22;2719;53.624;9.786;2023-02-01T14:36:00;5.60;99.90
5392;DHT22;2719;53.624;9.786;2023-02-01T14:38:30;5.50;99.90
5392;DHT22;2719;53.624;9.786;2023-02-01T14:41:14;5.50;99.90
5392;DHT22;2719;53.624;9.786;2023-02-01T14:43:50;5.40;99.90
5392;DHT22;2719;53.624;9.786;2023-02-01T14:46:17;5.40;99.90
5392;DHT22;2719;53.624;9.786;2023-02-01T14:48:46;5.30;99.90
5392;DHT22;2719;53.624;9.786;2023-02-01T14:51:15;5.30;99.90
5392;DHT22;2719;53.624;9.786;2023-02-01T14:53:44;5.30;99.90
5392;DHT22;2719;53.624;9.786;2023-02-01T14:56:15;5.30;99.90
5392;DHT22;2719;53.624;9.786;2023-02-01T14:58:48;5.30;99.90
5392;DHT22;2719;53.624;9.786;2023-02-01T15:01:21;5.30;99.90
5392;DHT22;2719;53.624;9.786;2023-02-01T15:03:52;5.40;99.90
5392;DHT22;2719;53.624;9.786;2023-02-01T15:06:38;5.30;99.90
5392;DHT22;2719;53.624;9.786;2023-02-01T15:09:11;5.30;99.90
5392;DHT22;2719;53.624;9.786;2023-02-01T15:11:59;5.30;99.90
5392;DHT22;2719;53.624;9.786;2023-02-01T15:14:28;5.20;99.90
5392;DHT22;2719;53.624;9.786;2023-02-01T15:16:55;5.20;99.90
5392;DHT22;2719;53.624;9.786;2023-02-01T15:19:23;5.20;99.90
5392;DHT22;2719;53.624;9.786;2023-02-01T15:21:52;5.10;99.90
5392;DHT22;2719;53.624;9.786;2023-02-01T15:24:24;5.10;99.90
5392;DHT22;2719;53.624;9.786;2023-02-01T15:26:51;5.20;99.90
5392;DHT22;2719;53.624;9.786;2023-02-01T15:29:20;5.20;99.90
5392;DHT22;2719;53.624;9.786;2023-02-01T15:31:49;5.20;99.90
5392;DHT22;2719;53.624;9.786;2023-02-01T15:34:16;5.10;99.90
5392;DHT22;2719;53.624;9.786;2023-02-01T15:36:44;5.20;99.90
5392;DHT22;2719;53.624;9.786;2023-02-01T15:39:13;5.10;99.90
5392;DHT22;2719;53.624;9.786;2023-02-01T15:41:46;5.10;99.90
5392;DHT22;2719;53.624;9.786;2023-02-01T15:44:18;5.10;99.90
5392;DHT22;2719;53.624;9.786;2023-02-01T15:46:47;5.10;99.90
5392;DHT22;2719;53.624;9.786;2023-02-01T15:49:23;5.10;99.90
5392;DHT22;2719;53.624;9.786;2023-02-01T15:51:51;5.10;99.90
5392;DHT22;2719;53.624;9.786;2023-02-01T15:54:22;5.10;99.90
5392;DHT22;2719;53.624;9.786;2023-02-01T15:56:53;5.10;99.90
5392;DHT22;2719;53.624;9.786;2023-02-01T15:59:22;5.30;99.90
5392;DHT22;2719;53.624;9.786;2023-02-01T16:01:49;5.20;99.90
5392;DHT22;2719;53.624;9.786;2023-02-01T16:04:18;5.20;99.90
5392;DHT22;2719;53.624;9.786;2023-02-01T16:06:47;5.20;99.90
5392;DHT22;2719;53.624;9.786;2023-02-01T16:09:16;5.30;99.90
5392;DHT22;2719;53.624;9.786;2023-02-01T16:11:49;5.30;99.90
5392;DHT22;2719;53.624;9.786;2023-02-01T16:14:19;5.30;99.90
5392;DHT22;2719;53.624;9.786;2023-02-01T16:16:46;5.30;99.90
5392;DHT22;2719;53.624;9.786;2023-02-01T16:19:13;5.30;99.90
5392;DHT22;2719;53.624;9.786;2023-02-01T16:21:39;5.40;99.90
5392;DHT22;2719;53.624;9.786;2023-02-01T16:24:06;5.40;99.90
5392;DHT22;2719;53.624;9.786;2023-02-01T16:26:34;5.40;99.90
5392;DHT22;2719;53.624;9.786;2023-02-01T16:29:01;5.40;99.90
5392;DHT22;2719;53.624;9.786;2023-02-01T16:31:34;5.50;99.90
5392;DHT22;2719;53.624;9.786;2023-02-01T16:34:02;5.50;99.90
5392;DHT22;2719;53.624;9.786;2023-02-01T16:36:29;5.50;99.90
5392;DHT22;2719;53.624;9.786;2023-02-01T16:38:56;5.50;99.90
5392;DHT22;2719;53.624;9.786;2023-02-01T16:41:24;5.50;99.90
5392;DHT22;2719;53.624;9.786;2023-02-01T16:43:52;5.60;99.90
5392;DHT22;2719;53.624;9.786;2023-02-01T16:46:21;5.60;99.90
5392;DHT22;2719;53.624;9.786;2023-02-01T16:48:53;5.60;99.90
5392;DHT22;2719;53.624;9.786;2023-02-01T16:51:20;5.60;99.90
5392;DHT22;2719;53.624;9.786;2023-02-01T16:53:47;5.70;99.90
5392;DHT22;2719;53.624;9.786;2023-02-01T16:56:16;5.80;99.90
5392;DHT22;2719;53.624;9.786;2023-02-01T16:58:43;5.70;99.90
5392;DHT22;2719;53.624;9.786;2023-02-01T17:01:10;5.80;99.90
5392;DHT22;2719;53.624;9.786;2023-02-01T17:03:38;5.90;99.90
5392;DHT22;2719;53.624;9.786;2023-02-01T17:06:08;5.90;99.90